sensor_id;sensor_type;location;lat;lon;timestamp;P1;durP1;ratioP1;P2;durP2;ratioP2
15240;SDS011;7723;52.170;9.978;2023-05-10T00:02:12;2.42;;;2.13;;
15240;SDS011;7723;52.170;9.978;2023-05-10T00:04:39;4.45;;;2.00;;
15240;SDS011;7723;52.170;9.978;2023-05-10T00:07:06;2.45;;;1.90;;
15240;SDS011;7723;52.170;9.978;2023-05-10T00:09:35;4.93;;;2.30;;
15240;SDS011;7723;52.170;9.978;2023-05-10T00:12:02;3.40;;;2.25;;
15240;SDS011;7723;52.170;9.978;2023-05-10T00:14:29;4.60;;;2.55;;
15240;SDS011;7723;52.170;9.978;2023-05-10T00:16:56;3.13;;;1.77;;
15240;SDS011;7723;52.170;9.978;2023-05-10T00:19:23;3.67;;;2.25;;
15240;SDS011;7723;52.170;9.978;2023-05-10T00:21:50;3.05;;;2.03;;
15240;SDS011;7723;52.170;9.978;2023-05-10T00:24:18;2.53;;;1.95;;
15240;SDS011;7723;52.170;9.978;2023-05-10T00:26:46;2.17;;;1.98;;
15240;SDS011;7723;52.170;9.978;2023-05-10T00:29:13;4.00;;;2.90;;
15240;SDS011;7723;52.170;9.978;2023-05-10T00:31:40;3.20;;;2.47;;
15240;SDS011;7723;52.170;9.978;2023-05-10T00:34:07;3.22;;;2.30;;
15240;SDS011;7723;52.170;9.978;2023-05-10T00:36:34;3.40;;;2.40;;
15240;SDS011;7723;52.170;9.978;2023-05-10T00:39:01;4.57;;;2.20;;
15240;SDS011;7723;52.170;9.978;2023-05-10T00:41:29;7.20;;;2.72;;
15240;SDS011;7723;52.170;9.978;2023-05-10T00:43:59;4.95;;;2.50;;
15240;SDS011;7723;52.170;9.978;2023-05-10T00:46:27;3.58;;;2.10;;
15240;SDS011;7723;52.170;9.978;2023-05-10T00:48:54;3.00;;;2.30;;
15240;SDS011;7723;52.170;9.978;2023-05-10T00:51:22;3.40;;;2.35;;
15240;SDS011;7723;52.170;9.978;2023-05-10T00:53:50;5.65;;;2.63;;
15240;SDS011;7723;52.170;9.978;2023-05-10T00:56:17;3.33;;;2.30;;
15240;SDS011;7723;52.170;9.978;2023-05-10T00:58:47;4.80;;;2.40;;
15240;SDS011;7723;52.170;9.978;2023-05-10T01:01:16;5.32;;;2.63;;
15240;SDS011;7723;52.170;9.978;2023-05-10T01:03:43;4.72;;;3.15;;
15240;SDS011;7723;52.170;9.978;2023-05-10T01:06:12;3.42;;;2.75;;
15240;SDS011;7723;52.170;9.978;2023-05-10T01:08:39;4.07;;;3.10;;
15240;SDS011;7723;52.170;9.978;2023-05-10T01:11:06;3.58;;;2.70;;
15240;SDS011;7723;52.170;9.978;2023-05-10T01:13:36;3.95;;;2.42;;
15240;SDS011;7723;52.170;9.978;2023-05-10T01:16:06;3.55;;;2.88;;
15240;SDS011;7723;52.170;9.978;2023-05-10T01:18:36;5.55;;;3.00;;
15240;SDS011;7723;52.170;9.978;2023-05-10T01:21:11;2.92;;;2.40;;
15240;SDS011;7723;52.170;9.978;2023-05-10T01:23:51;4.50;;;2.90;;
15240;SDS011;7723;52.170;9.978;2023-05-10T01:26:54;4.25;;;2.15;;
15240;SDS011;7723;52.170;9.978;2023-05-10T01:29:51;3.72;;;2.38;;
15240;SDS011;7723;52.170;9.978;2023-05-10T01:32:31;4.63;;;2.97;;
15240;SDS011;7723;52.170;9.978;2023-05-10T01:35:03;3.72;;;2.72;;
15240;SDS011;7723;52.170;9.978;2023-05-10T01:37:38;5.70;;;3.38;;
15240;SDS011;7723;52.170;9.978;2023-05-10T01:40:10;6.82;;;2.90;;
15240;SDS011;7723;52.170;9.978;2023-05-10T01:42:46;3.08;;;2.70;;
15240;SDS011;7723;52.170;9.978;2023-05-10T01:45:19;3.88;;;3.03;;
15240;SDS011;7723;52.170;9.978;2023-05-10T01:47:54;3.72;;;2.72;;
15240;SDS011;7723;52.170;9.978;2023-05-10T01:50:29;4.57;;;3.08;;
15240;SDS011;7723;52.170;9.978;2023-05-10T01:52:58;4.43;;;2.90;;
15240;SDS011;7723;52.170;9.978;2023-05-10T01:55:28;3.97;;;2.55;;
15240;SDS011;7723;52.170;9.978;2023-05-10T01:58:00;5.57;;;3.20;;
15240;SDS011;7723;52.170;9.978;2023-05-10T02:00:30;6.03;;;2.97;;
15240;SDS011;7723;52.170;9.978;2023-05-10T02:03:01;3.55;;;3.00;;
15240;SDS011;7723;52.170;9.978;2023-05-10T02:05:32;5.13;;;3.05;;
15240;SDS011;7723;52.170;9.978;2023-05-10T02:08:01;5.15;;;3.40;;
15240;SDS011;7723;52.170;9.978;2023-05-10T02:10:32;5.05;;;3.20;;
15240;SDS011;7723;52.170;9.978;2023-05-10T02:13:00;6.13;;;3.03;;
15240;SDS011;7723;52.170;9.978;2023-05-10T02:15:29;5.97;;;2.90;;
15240;SDS011;7723;52.170;9.978;2023-05-10T02:17:57;4.43;;;3.25;;
15240;SDS011;7723;52.170;9.978;2023-05-10T02:20:28;5.43;;;3.47;;
15240;SDS011;7723;52.170;9.978;2023-05-10T02:22:57;3.92;;;3.40;;
15240;SDS011;7723;52.170;9.978;2023-05-10T02:25:25;6.20;;;3.50;;
15240;SDS011;7723;52.170;9.978;2023-05-10T02:27:55;4.10;;;3.10;;
15240;SDS011;7723;52.170;9.978;2023-05-10T02:30:23;3.65;;;3.10;;
15240;SDS011;7723;52.170;9.978;2023-05-10T02:32:51;5.25;;;2.92;;
15240;SDS011;7723;52.170;9.978;2023-05-10T02:35:18;3.60;;;2.85;;
15240;SDS011;7723;52.170;9.978;2023-05-10T02:37:48;5.40;;;3.28;;
15240;SDS011;7723;52.170;9.978;2023-05-10T02:40:16;3.95;;;3.55;;
15240;SDS011;7723;52.170;9.978;2023-05-10T02:42:45;3.65;;;2.95;;
15240;SDS011;7723;52.170;9.978;2023-05-10T02:45:15;4.05;;;3.28;;
15240;SDS011;7723;52.170;9.978;2023-05-10T02:47:45;5.53;;;3.42;;
15240;SDS011;7723;52.170;9.978;2023-05-10T02:50:13;4.50;;;3.15;;
15240;SDS011;7723;52.170;9.978;2023-05-10T02:52:41;3.33;;;2.92;;
15240;SDS011;7723;52.170;9.978;2023-05-10T02:55:14;7.78;;;3.30;;
15240;SDS011;7723;52.170;9.978;2023-05-10T02:57:46;5.05;;;3.15;;
15240;SDS011;7723;52.170;9.978;2023-05-10T03:00:18;3.75;;;2.88;;
15240;SDS011;7723;52.170;9.978;2023-05-10T03:02:45;3.90;;;3.50;;
15240;SDS011;7723;52.170;9.978;2023-05-10T03:05:13;7.93;;;3.25;;
15240;SDS011;7723;52.170;9.978;2023-05-10T03:07:40;5.50;;;3.55;;
15240;SDS011;7723;52.170;9.978;2023-05-10T03:10:07;5.18;;;3.45;;
15240;SDS011;7723;52.170;9.978;2023-05-10T03:12:41;4.57;;;3.15;;
15240;SDS011;7723;52.170;9.978;2023-05-10T03:15:28;4.53;;;3.72;;
15240;SDS011;7723;52.170;9.978;2023-05-10T03:18:04;4.10;;;3.13;;
15240;SDS011;7723;52.170;9.978;2023-05-10T03:20:35;7.78;;;3.65;;
15240;SDS011;7723;52.170;9.978;2023-05-10T03:23:07;3.83;;;3.20;;
15240;SDS011;7723;52.170;9.978;2023-05-10T03:25:39;9.55;;;4.43;;
15240;SDS011;7723;52.170;9.978;2023-05-10T03:28:11;4.68;;;3.22;;
15240;SDS011;7723;52.170;9.978;2023-05-10T03:30:38;6.93;;;3.55;;
15240;SDS011;7723;52.170;9.978;2023-05-10T03:33:07;5.32;;;3.80;;
15240;SDS011;7723;52.170;9.978;2023-05-10T03:35:34;5.25;;;3.58;;
15240;SDS011;7723;52.170;9.978;2023-05-10T03:38:01;6.80;;;3.83;;
15240;SDS011;7723;52.170;9.978;2023-05-10T03:40:28;4.82;;;3.72;;
15240;SDS011;7723;52.170;9.978;2023-05-10T03:42:57;4.65;;;4.13;;
15240;SDS011;7723;52.170;9.978;2023-05-10T03:45:25;6.60;;;4.20;;
15240;SDS011;7723;52.170;9.978;2023-05-10T03:47:52;5.45;;;4.35;;
15240;SDS011;7723;52.170;9.978;2023-05-10T03:50:20;9.52;;;4.35;;
15240;SDS011;7723;52.170;9.978;2023-05-10T03:52:47;9.88;;;4.72;;
15240;SDS011;7723;52.170;9.978;2023-05-10T03:55:15;5.78;;;4.05;;
15240;SDS011;7723;52.170;9.978;2023-05-10T03:57:42;4.82;;;3.88;;
15240;SDS011;7723;52.170;9.978;2023-05-10T04:00:09;4.85;;;3.45;;
15240;SDS011;7723;52.170;9.978;2023-05-10T04:02:39;3.60;;;3.25;;
15240;SDS011;7723;52.170;9.978;2023-05-10T04:05:06;6.47;;;4.10;;
15240;SDS011;7723;52.170;9.978;2023-05-10T04:07:33;7.53;;;4.18;;
15240;SDS011;7723;52.170;9.978;2023-05-10T04:10:01;6.13;;;3.97;;
15240;SDS011;7723;52.170;9.978;2023-05-10T04:12:28;4.93;;;3.80;;
15240;SDS011;7723;52.170;9.978;2023-05-10T04:14:55;9.32;;;5.03;;
15240;SDS011;7723;52.170;9.978;2023-05-10T04:17:22;8.27;;;4.43;;
15240;SDS011;7723;52.170;9.978;2023-05-10T04:19:51;6.40;;;4.05;;
15240;SDS011;7723;52.170;9.978;2023-05-10T04:22:19;5.80;;;5.03;;
15240;SDS011;7723;52.170;9.978;2023-05-10T04:24:47;6.30;;;4.35;;
15240;SDS011;7723;52.170;9.978;2023-05-10T04:27:14;8.20;;;4.97;;
15240;SDS011;7723;52.170;9.978;2023-05-10T04:29:41;10.60;;;5.63;;
15240;SDS011;7723;52.170;9.978;2023-05-10T04:32:08;8.95;;;5.75;;
15240;SDS011;7723;52.170;9.978;2023-05-10T04:34:36;9.50;;;5.40;;
15240;SDS011;7723;52.170;9.978;2023-05-10T04:37:04;6.63;;;5.10;;
15240;SDS011;7723;52.170;9.978;2023-05-10T04:39:32;9.45;;;4.93;;
15240;SDS011;7723;52.170;9.978;2023-05-10T04:42:00;7.90;;;4.85;;
15240;SDS011;7723;52.170;9.978;2023-05-10T04:44:28;6.22;;;5.05;;
15240;SDS011;7723;52.170;9.978;2023-05-10T04:46:55;7.38;;;5.50;;
15240;SDS011;7723;52.170;9.978;2023-05-10T04:49:23;11.35;;;5.60;;
15240;SDS011;7723;52.170;9.978;2023-05-10T04:51:50;12.60;;;6.32;;
15240;SDS011;7723;52.170;9.978;2023-05-10T04:54:18;6.88;;;5.30;;
15240;SDS011;7723;52.170;9.978;2023-05-10T04:56:45;8.07;;;4.72;;
15240;SDS011;7723;52.170;9.978;2023-05-10T04:59:12;7.20;;;4.25;;
15240;SDS011;7723;52.170;9.978;2023-05-10T05:01:39;5.93;;;3.65;;
15240;SDS011;7723;52.170;9.978;2023-05-10T05:04:06;7.30;;;4.35;;
15240;SDS011;7723;52.170;9.978;2023-05-10T05:06:33;3.10;;;2.80;;
15240;SDS011;7723;52.170;9.978;2023-05-10T05:09:00;4.07;;;3.38;;
15240;SDS011;7723;52.170;9.978;2023-05-10T05:11:30;5.47;;;3.20;;
15240;SDS011;7723;52.170;9.978;2023-05-10T05:13:57;5.72;;;3.30;;
15240;SDS011;7723;52.170;9.978;2023-05-10T05:16:25;4.43;;;3.45;;
15240;SDS011;7723;52.170;9.978;2023-05-10T05:18:52;4.30;;;3.33;;
15240;SDS011;7723;52.170;9.978;2023-05-10T05:21:19;5.20;;;3.70;;
15240;SDS011;7723;52.170;9.978;2023-05-10T05:23:47;5.78;;;3.97;;
15240;SDS011;7723;52.170;9.978;2023-05-10T05:26:14;4.28;;;3.58;;
15240;SDS011;7723;52.170;9.978;2023-05-10T05:28:43;4.40;;;3.40;;
15240;SDS011;7723;52.170;9.978;2023-05-10T05:31:10;4.88;;;3.67;;
15240;SDS011;7723;52.170;9.978;2023-05-10T05:33:37;5.15;;;3.80;;
15240;SDS011;7723;52.170;9.978;2023-05-10T05:36:04;5.78;;;4.20;;
15240;SDS011;7723;52.170;9.978;2023-05-10T05:38:34;6.55;;;3.83;;
15240;SDS011;7723;52.170;9.978;2023-05-10T05:41:02;6.68;;;4.10;;
15240;SDS011;7723;52.170;9.978;2023-05-10T05:43:29;6.40;;;4.47;;
15240;SDS011;7723;52.170;9.978;2023-05-10T05:45:57;5.28;;;4.25;;
15240;SDS011;7723;52.170;9.978;2023-05-10T05:48:24;4.50;;;3.92;;
15240;SDS011;7723;52.170;9.978;2023-05-10T05:50:53;4.82;;;3.55;;
15240;SDS011;7723;52.170;9.978;2023-05-10T05:53:21;6.50;;;4.55;;
15240;SDS011;7723;52.170;9.978;2023-05-10T05:55:52;5.75;;;4.25;;
15240;SDS011;7723;52.170;9.978;2023-05-10T05:58:20;5.32;;;4.03;;
15240;SDS011;7723;52.170;9.978;2023-05-10T06:00:47;7.47;;;4.10;;
15240;SDS011;7723;52.170;9.978;2023-05-10T06:03:16;4.60;;;3.80;;
15240;SDS011;7723;52.170;9.978;2023-05-10T06:05:43;5.10;;;3.85;;
15240;SDS011;7723;52.170;9.978;2023-05-10T06:08:10;5.97;;;4.22;;
15240;SDS011;7723;52.170;9.978;2023-05-10T06:10:37;5.50;;;4.00;;
15240;SDS011;7723;52.170;9.978;2023-05-10T06:13:04;4.82;;;4.28;;
15240;SDS011;7723;52.170;9.978;2023-05-10T06:15:31;6.55;;;4.28;;
15240;SDS011;7723;52.170;9.978;2023-05-10T06:17:59;4.97;;;4.22;;
15240;SDS011;7723;52.170;9.978;2023-05-10T06:20:28;5.80;;;4.50;;
15240;SDS011;7723;52.170;9.978;2023-05-10T06:22:56;6.80;;;4.97;;
15240;SDS011;7723;52.170;9.978;2023-05-10T06:25:23;5.78;;;4.57;;
15240;SDS011;7723;52.170;9.978;2023-05-10T06:27:50;7.05;;;4.18;;
15240;SDS011;7723;52.170;9.978;2023-05-10T06:30:22;7.25;;;4.80;;
15240;SDS011;7723;52.170;9.978;2023-05-10T06:32:52;4.90;;;4.00;;
15240;SDS011;7723;52.170;9.978;2023-05-10T06:35:20;5.18;;;3.83;;
15240;SDS011;7723;52.170;9.978;2023-05-10T06:37:48;6.90;;;5.25;;
15240;SDS011;7723;52.170;9.978;2023-05-10T06:40:16;6.55;;;4.90;;
15240;SDS011;7723;52.170;9.978;2023-05-10T06:42:43;5.57;;;4.90;;
15240;SDS011;7723;52.170;9.978;2023-05-10T06:45:11;7.85;;;4.57;;
15240;SDS011;7723;52.170;9.978;2023-05-10T06:47:39;6.28;;;4.50;;
15240;SDS011;7723;52.170;9.978;2023-05-10T06:50:07;7.82;;;4.60;;
15240;SDS011;7723;52.170;9.978;2023-05-10T06:52:34;5.97;;;4.85;;
15240;SDS011;7723;52.170;9.978;2023-05-10T06:55:03;6.47;;;5.07;;
15240;SDS011;7723;52.170;9.978;2023-05-10T06:57:31;8.60;;;4.75;;
15240;SDS011;7723;52.170;9.978;2023-05-10T06:59:58;5.28;;;4.10;;
15240;SDS011;7723;52.170;9.978;2023-05-10T07:02:26;7.15;;;4.40;;
15240;SDS011;7723;52.170;9.978;2023-05-10T07:04:53;8.00;;;4.57;;
15240;SDS011;7723;52.170;9.978;2023-05-10T07:07:20;5.95;;;4.47;;
15240;SDS011;7723;52.170;9.978;2023-05-10T07:09:47;4.03;;;3.63;;
15240;SDS011;7723;52.170;9.978;2023-05-10T07:12:16;5.45;;;4.10;;
15240;SDS011;7723;52.170;9.978;2023-05-10T07:14:43;4.60;;;3.75;;
15240;SDS011;7723;52.170;9.978;2023-05-10T07:17:10;6.75;;;4.18;;
15240;SDS011;7723;52.170;9.978;2023-05-10T07:19:37;7.32;;;3.45;;
15240;SDS011;7723;52.170;9.978;2023-05-10T07:22:05;4.80;;;3.65;;
15240;SDS011;7723;52.170;9.978;2023-05-10T07:24:32;6.25;;;3.50;;
15240;SDS011;7723;52.170;9.978;2023-05-10T07:27:00;5.07;;;3.90;;
15240;SDS011;7723;52.170;9.978;2023-05-10T07:29:28;5.10;;;4.28;;
15240;SDS011;7723;52.170;9.978;2023-05-10T07:31:55;5.28;;;4.03;;
15240;SDS011;7723;52.170;9.978;2023-05-10T07:34:22;6.93;;;3.95;;
15240;SDS011;7723;52.170;9.978;2023-05-10T07:36:49;4.50;;;3.70;;
15240;SDS011;7723;52.170;9.978;2023-05-10T07:39:16;6.13;;;4.00;;
15240;SDS011;7723;52.170;9.978;2023-05-10T07:41:43;5.25;;;4.10;;
15240;SDS011;7723;52.170;9.978;2023-05-10T07:44:10;4.97;;;3.55;;
15240;SDS011;7723;52.170;9.978;2023-05-10T07:46:39;4.88;;;3.90;;
15240;SDS011;7723;52.170;9.978;2023-05-10T07:49:06;4.45;;;3.40;;
15240;SDS011;7723;52.170;9.978;2023-05-10T07:51:33;4.60;;;3.85;;
15240;SDS011;7723;52.170;9.978;2023-05-10T07:54:00;7.10;;;3.47;;
15240;SDS011;7723;52.170;9.978;2023-05-10T07:56:28;5.10;;;3.20;;
15240;SDS011;7723;52.170;9.978;2023-05-10T07:58:56;3.90;;;3.47;;
15240;SDS011;7723;52.170;9.978;2023-05-10T08:01:24;4.80;;;3.90;;
15240;SDS011;7723;52.170;9.978;2023-05-10T08:03:54;4.43;;;3.53;;
15240;SDS011;7723;52.170;9.978;2023-05-10T08:06:21;5.10;;;3.58;;
15240;SDS011;7723;52.170;9.978;2023-05-10T08:08:48;5.97;;;3.88;;
15240;SDS011;7723;52.170;9.978;2023-05-10T08:11:16;4.43;;;3.67;;
15240;SDS011;7723;52.170;9.978;2023-05-10T08:13:44;6.57;;;3.75;;
15240;SDS011;7723;52.170;9.978;2023-05-10T08:16:11;4.13;;;3.30;;
15240;SDS011;7723;52.170;9.978;2023-05-10T08:18:38;3.60;;;2.97;;
15240;SDS011;7723;52.170;9.978;2023-05-10T08:21:07;2.83;;;2.33;;
15240;SDS011;7723;52.170;9.978;2023-05-10T08:23:36;2.72;;;2.10;;
15240;SDS011;7723;52.170;9.978;2023-05-10T08:26:03;2.70;;;2.28;;
15240;SDS011;7723;52.170;9.978;2023-05-10T08:28:30;2.25;;;1.77;;
15240;SDS011;7723;52.170;9.978;2023-05-10T08:30:57;3.05;;;2.30;;
15240;SDS011;7723;52.170;9.978;2023-05-10T08:33:25;3.03;;;2.03;;
15240;SDS011;7723;52.170;9.978;2023-05-10T08:35:52;3.10;;;1.60;;
15240;SDS011;7723;52.170;9.978;2023-05-10T08:38:20;2.67;;;1.83;;
15240;SDS011;7723;52.170;9.978;2023-05-10T08:40:47;1.77;;;1.38;;
15240;SDS011;7723;52.170;9.978;2023-05-10T08:43:16;1.65;;;1.48;;
15240;SDS011;7723;52.170;9.978;2023-05-10T08:45:43;3.20;;;1.25;;
15240;SDS011;7723;52.170;9.978;2023-05-10T08:48:12;1.38;;;1.20;;
15240;SDS011;7723;52.170;9.978;2023-05-10T08:50:41;1.05;;;0.95;;
15240;SDS011;7723;52.170;9.978;2023-05-10T08:53:10;1.33;;;0.77;;
15240;SDS011;7723;52.170;9.978;2023-05-10T08:55:40;1.88;;;1.40;;
15240;SDS011;7723;52.170;9.978;2023-05-10T08:58:08;1.17;;;1.00;;
15240;SDS011;7723;52.170;9.978;2023-05-10T09:00:35;2.15;;;1.08;;
15240;SDS011;7723;52.170;9.978;2023-05-10T09:03:03;0.90;;;0.80;;
15240;SDS011;7723;52.170;9.978;2023-05-10T09:05:31;2.30;;;1.10;;
15240;SDS011;7723;52.170;9.978;2023-05-10T09:07:58;0.90;;;0.80;;
15240;SDS011;7723;52.170;9.978;2023-05-10T09:10:26;1.35;;;0.90;;
15240;SDS011;7723;52.170;9.978;2023-05-10T09:12:55;1.15;;;0.70;;
15240;SDS011;7723;52.170;9.978;2023-05-10T09:15:23;1.25;;;0.80;;
15240;SDS011;7723;52.170;9.978;2023-05-10T09:17:50;1.13;;;0.70;;
15240;SDS011;7723;52.170;9.978;2023-05-10T09:20:17;0.60;;;0.60;;
15240;SDS011;7723;52.170;9.978;2023-05-10T09:22:44;0.90;;;0.70;;
15240;SDS011;7723;52.170;9.978;2023-05-10T09:25:12;0.85;;;0.50;;
15240;SDS011;7723;52.170;9.978;2023-05-10T09:27:40;0.47;;;0.40;;
15240;SDS011;7723;52.170;9.978;2023-05-10T09:30:11;0.60;;;0.43;;
15240;SDS011;7723;52.170;9.978;2023-05-10T09:32:43;0.40;;;0.40;;
15240;SDS011;7723;52.170;9.978;2023-05-10T09:35:12;0.50;;;0.40;;
15240;SDS011;7723;52.170;9.978;2023-05-10T09:37:40;0.90;;;0.70;;
15240;SDS011;7723;52.170;9.978;2023-05-10T09:40:11;1.17;;;1.02;;
15240;SDS011;7723;52.170;9.978;2023-05-10T09:42:39;0.40;;;0.40;;
15240;SDS011;7723;52.170;9.978;2023-05-10T09:45:08;0.68;;;0.63;;
15240;SDS011;7723;52.170;9.978;2023-05-10T09:47:37;0.50;;;0.45;;
15240;SDS011;7723;52.170;9.978;2023-05-10T09:50:04;0.50;;;0.50;;
15240;SDS011;7723;52.170;9.978;2023-05-10T09:52:45;0.50;;;0.50;;
15240;SDS011;7723;52.170;9.978;2023-05-10T09:55:14;1.20;;;0.47;;
15240;SDS011;7723;52.170;9.978;2023-05-10T09:57:41;1.50;;;0.75;;
15240;SDS011;7723;52.170;9.978;2023-05-10T10:00:09;0.60;;;0.50;;
15240;SDS011;7723;52.170;9.978;2023-05-10T10:02:42;0.63;;;0.60;;
15240;SDS011;7723;52.170;9.978;2023-05-10T10:05:09;1.13;;;0.60;;
15240;SDS011;7723;52.170;9.978;2023-05-10T10:07:37;1.33;;;0.70;;
15240;SDS011;7723;52.170;9.978;2023-05-10T10:10:06;0.50;;;0.50;;
15240;SDS011;7723;52.170;9.978;2023-05-10T10:12:37;1.05;;;0.80;;
15240;SDS011;7723;52.170;9.978;2023-05-10T10:15:05;0.80;;;0.80;;
15240;SDS011;7723;52.170;9.978;2023-05-10T10:17:36;0.77;;;0.68;;
15240;SDS011;7723;52.170;9.978;2023-05-10T10:20:05;0.60;;;0.60;;
15240;SDS011;7723;52.170;9.978;2023-05-10T10:22:33;0.70;;;0.70;;
15240;SDS011;7723;52.170;9.978;2023-05-10T10:25:01;0.70;;;0.70;;
15240;SDS011;7723;52.170;9.978;2023-05-10T10:27:33;1.00;;;0.90;;
15240;SDS011;7723;52.170;9.978;2023-05-10T10:30:09;0.98;;;0.88;;
15240;SDS011;7723;52.170;9.978;2023-05-10T10:32:49;1.20;;;1.10;;
15240;SDS011;7723;52.170;9.978;2023-05-10T10:35:27;2.60;;;1.30;;
15240;SDS011;7723;52.170;9.978;2023-05-10T10:37:55;1.50;;;1.40;;
15240;SDS011;7723;52.170;9.978;2023-05-10T10:40:23;5.13;;;2.08;;
15240;SDS011;7723;52.170;9.978;2023-05-10T10:42:52;1.48;;;1.38;;
15240;SDS011;7723;52.170;9.978;2023-05-10T10:45:20;1.33;;;1.23;;
15240;SDS011;7723;52.170;9.978;2023-05-10T10:47:50;1.55;;;1.38;;
15240;SDS011;7723;52.170;9.978;2023-05-10T10:50:43;3.25;;;1.38;;
15240;SDS011;7723;52.170;9.978;2023-05-10T10:53:11;1.50;;;1.35;;
15240;SDS011;7723;52.170;9.978;2023-05-10T10:55:44;1.65;;;1.50;;
15240;SDS011;7723;52.170;9.978;2023-05-10T10:58:28;1.30;;;1.20;;
15240;SDS011;7723;52.170;9.978;2023-05-10T11:01:08;2.00;;;1.60;;
15240;SDS011;7723;52.170;9.978;2023-05-10T11:03:38;1.73;;;1.50;;
15240;SDS011;7723;52.170;9.978;2023-05-10T11:06:05;1.55;;;1.45;;
15240;SDS011;7723;52.170;9.978;2023-05-10T11:08:34;1.63;;;1.52;;
15240;SDS011;7723;52.170;9.978;2023-05-10T11:11:08;1.70;;;1.58;;
15240;SDS011;7723;52.170;9.978;2023-05-10T11:13:38;2.80;;;1.70;;
15240;SDS011;7723;52.170;9.978;2023-05-10T11:16:09;2.63;;;1.60;;
15240;SDS011;7723;52.170;9.978;2023-05-10T11:18:39;1.80;;;1.42;;
15240;SDS011;7723;52.170;9.978;2023-05-10T11:21:08;2.20;;;1.70;;
15240;SDS011;7723;52.170;9.978;2023-05-10T11:23:47;2.50;;;1.50;;
15240;SDS011;7723;52.170;9.978;2023-05-10T11:26:16;4.20;;;1.60;;
15240;SDS011;7723;52.170;9.978;2023-05-10T11:28:43;1.88;;;1.52;;
15240;SDS011;7723;52.170;9.978;2023-05-10T11:31:12;2.55;;;1.38;;
15240;SDS011;7723;52.170;9.978;2023-05-10T11:33:45;2.20;;;1.38;;
15240;SDS011;7723;52.170;9.978;2023-05-10T11:36:14;1.75;;;1.63;;
15240;SDS011;7723;52.170;9.978;2023-05-10T11:38:42;2.90;;;1.50;;
15240;SDS011;7723;52.170;9.978;2023-05-10T11:41:09;2.53;;;1.70;;
15240;SDS011;7723;52.170;9.978;2023-05-10T11:43:37;5.45;;;2.35;;
15240;SDS011;7723;52.170;9.978;2023-05-10T11:46:06;1.92;;;1.65;;
15240;SDS011;7723;52.170;9.978;2023-05-10T11:48:34;3.03;;;1.90;;
15240;SDS011;7723;52.170;9.978;2023-05-10T11:51:02;2.65;;;1.50;;
15240;SDS011;7723;52.170;9.978;2023-05-10T11:53:30;2.35;;;1.50;;
15240;SDS011;7723;52.170;9.978;2023-05-10T11:56:02;1.52;;;1.27;;
15240;SDS011;7723;52.170;9.978;2023-05-10T11:58:30;1.83;;;1.67;;
15240;SDS011;7723;52.170;9.978;2023-05-10T12:00:57;1.48;;;1.20;;
15240;SDS011;7723;52.170;9.978;2023-05-10T12:03:25;1.65;;;1.33;;
15240;SDS011;7723;52.170;9.978;2023-05-10T12:05:53;1.52;;;1.30;;
15240;SDS011;7723;52.170;9.978;2023-05-10T12:08:22;2.75;;;1.50;;
15240;SDS011;7723;52.170;9.978;2023-05-10T12:10:50;2.78;;;1.92;;
15240;SDS011;7723;52.170;9.978;2023-05-10T12:13:18;3.38;;;1.30;;
15240;SDS011;7723;52.170;9.978;2023-05-10T12:15:46;1.40;;;1.30;;
15240;SDS011;7723;52.170;9.978;2023-05-10T12:18:13;3.10;;;1.60;;
15240;SDS011;7723;52.170;9.978;2023-05-10T12:20:40;1.80;;;1.50;;
15240;SDS011;7723;52.170;9.978;2023-05-10T12:23:08;3.55;;;1.45;;
15240;SDS011;7723;52.170;9.978;2023-05-10T12:25:37;2.55;;;1.35;;
15240;SDS011;7723;52.170;9.978;2023-05-10T12:28:06;4.10;;;1.35;;
15240;SDS011;7723;52.170;9.978;2023-05-10T12:30:35;2.42;;;1.30;;
15240;SDS011;7723;52.170;9.978;2023-05-10T12:33:07;1.70;;;1.60;;
15240;SDS011;7723;52.170;9.978;2023-05-10T12:35:43;4.25;;;1.70;;
15240;SDS011;7723;52.170;9.978;2023-05-10T12:38:24;2.47;;;1.45;;
15240;SDS011;7723;52.170;9.978;2023-05-10T12:40:55;2.65;;;1.35;;
15240;SDS011;7723;52.170;9.978;2023-05-10T12:43:23;1.40;;;1.13;;
15240;SDS011;7723;52.170;9.978;2023-05-10T12:45:50;3.17;;;1.80;;
15240;SDS011;7723;52.170;9.978;2023-05-10T12:48:17;2.67;;;1.60;;
15240;SDS011;7723;52.170;9.978;2023-05-10T12:50:44;3.08;;;1.90;;
15240;SDS011;7723;52.170;9.978;2023-05-10T12:53:12;3.85;;;1.70;;
15240;SDS011;7723;52.170;9.978;2023-05-10T12:55:44;3.75;;;1.90;;
15240;SDS011;7723;52.170;9.978;2023-05-10T12:58:13;3.30;;;2.30;;
15240;SDS011;7723;52.170;9.978;2023-05-10T13:00:40;2.70;;;2.17;;
15240;SDS011;7723;52.170;9.978;2023-05-10T13:03:08;3.05;;;2.15;;
15240;SDS011;7723;52.170;9.978;2023-05-10T13:05:36;2.97;;;2.08;;
15240;SDS011;7723;52.170;9.978;2023-05-10T13:08:03;2.03;;;1.80;;
15240;SDS011;7723;52.170;9.978;2023-05-10T13:10:31;3.10;;;2.30;;
15240;SDS011;7723;52.170;9.978;2023-05-10T13:12:58;3.72;;;2.00;;
15240;SDS011;7723;52.170;9.978;2023-05-10T13:15:29;5.00;;;1.90;;
15240;SDS011;7723;52.170;9.978;2023-05-10T13:17:56;7.70;;;2.88;;
15240;SDS011;7723;52.170;9.978;2023-05-10T13:20:23;5.38;;;2.70;;
15240;SDS011;7723;52.170;9.978;2023-05-10T13:22:51;5.82;;;1.88;;
15240;SDS011;7723;52.170;9.978;2023-05-10T13:25:18;2.80;;;1.98;;
15240;SDS011;7723;52.170;9.978;2023-05-10T13:27:45;1.73;;;1.55;;
15240;SDS011;7723;52.170;9.978;2023-05-10T13:30:12;1.33;;;0.95;;
15240;SDS011;7723;52.170;9.978;2023-05-10T13:32:41;1.15;;;0.95;;
15240;SDS011;7723;52.170;9.978;2023-05-10T13:35:09;1.33;;;0.90;;
15240;SDS011;7723;52.170;9.978;2023-05-10T13:37:36;0.95;;;0.80;;
15240;SDS011;7723;52.170;9.978;2023-05-10T13:40:03;3.05;;;0.90;;
15240;SDS011;7723;52.170;9.978;2023-05-10T13:42:31;0.90;;;0.82;;
15240;SDS011;7723;52.170;9.978;2023-05-10T13:44:59;2.20;;;1.00;;
15240;SDS011;7723;52.170;9.978;2023-05-10T13:47:26;1.00;;;0.90;;
15240;SDS011;7723;52.170;9.978;2023-05-10T13:49:55;1.00;;;0.77;;
15240;SDS011;7723;52.170;9.978;2023-05-10T13:52:22;1.00;;;0.90;;
15240;SDS011;7723;52.170;9.978;2023-05-10T13:54:50;1.70;;;0.90;;
15240;SDS011;7723;52.170;9.978;2023-05-10T13:57:20;1.83;;;0.90;;
15240;SDS011;7723;52.170;9.978;2023-05-10T13:59:47;2.22;;;0.85;;
15240;SDS011;7723;52.170;9.978;2023-05-10T14:02:14;1.08;;;0.90;;
15240;SDS011;7723;52.170;9.978;2023-05-10T14:04:41;3.88;;;1.05;;
15240;SDS011;7723;52.170;9.978;2023-05-10T14:07:09;1.13;;;1.00;;
15240;SDS011;7723;52.170;9.978;2023-05-10T14:09:36;1.92;;;1.25;;
15240;SDS011;7723;52.170;9.978;2023-05-10T14:12:03;2.08;;;1.13;;
15240;SDS011;7723;52.170;9.978;2023-05-10T14:14:31;1.25;;;0.90;;
15240;SDS011;7723;52.170;9.978;2023-05-10T14:16:58;1.45;;;1.00;;
15240;SDS011;7723;52.170;9.978;2023-05-10T14:19:25;1.88;;;1.45;;
15240;SDS011;7723;52.170;9.978;2023-05-10T14:21:55;2.58;;;1.23;;
15240;SDS011;7723;52.170;9.978;2023-05-10T14:24:24;1.13;;;1.02;;
15240;SDS011;7723;52.170;9.978;2023-05-10T14:26:51;1.60;;;1.33;;
15240;SDS011;7723;52.170;9.978;2023-05-10T14:29:19;1.55;;;1.10;;
15240;SDS011;7723;52.170;9.978;2023-05-10T14:31:46;2.47;;;1.15;;
15240;SDS011;7723;52.170;9.978;2023-05-10T14:34:13;1.50;;;1.30;;
15240;SDS011;7723;52.170;9.978;2023-05-10T14:36:40;2.03;;;1.10;;
15240;SDS011;7723;52.170;9.978;2023-05-10T14:39:07;1.55;;;1.20;;
15240;SDS011;7723;52.170;9.978;2023-05-10T14:41:36;1.05;;;0.95;;
15240;SDS011;7723;52.170;9.978;2023-05-10T14:44:05;2.20;;;1.58;;
15240;SDS011;7723;52.170;9.978;2023-05-10T14:46:33;2.75;;;1.10;;
15240;SDS011;7723;52.170;9.978;2023-05-10T14:49:00;2.17;;;1.50;;
15240;SDS011;7723;52.170;9.978;2023-05-10T14:51:27;1.75;;;1.30;;
15240;SDS011;7723;52.170;9.978;2023-05-10T14:53:55;1.70;;;1.20;;
15240;SDS011;7723;52.170;9.978;2023-05-10T14:56:22;1.73;;;1.30;;
15240;SDS011;7723;52.170;9.978;2023-05-10T14:58:52;2.20;;;1.33;;
15240;SDS011;7723;52.170;9.978;2023-05-10T15:01:19;4.03;;;1.35;;
15240;SDS011;7723;52.170;9.978;2023-05-10T15:03:46;1.60;;;1.13;;
15240;SDS011;7723;52.170;9.978;2023-05-10T15:06:13;2.35;;;1.23;;
15240;SDS011;7723;52.170;9.978;2023-05-10T15:08:41;1.70;;;1.20;;
15240;SDS011;7723;52.170;9.978;2023-05-10T15:11:08;1.45;;;1.05;;